Chickasha, OK (73018)

8:29 PM CST on February 07, 2016 (GMT -0600)
Chickasha Municipal | | Change Station
CLOSE
Current Station
Airport
Location: Chickasha,
Elevation: 1152 ft
Nearby Weather Stations

Elev 1152 ft 35.10 °N, 97.97 °W | Updated 14 minutes ago

Clear
Clear
45 °F
Feels Like 38 °F
N
14
Wind Variable Wind from North

Today
High -- | Low -- °F
--% Chance of Precip.
Yesterday
High -- | Low -- °F
Precip. -- in
Pressure 30.26 in
Visibility 10.0 miles
Clouds Clear
Windchill 38 °F
Dew Point 30 °F
Humidity 57%
Rainfall 0.00 in
Snow Depth Not available.
7:26 AM 6:06 PM
Waning Crescent, 0% visible
METAR KCHK 080215Z AUTO 35012KT 10SM CLR 07/M01 A3026 RMK AO2
Pressure 30.26 in
Visibility 10.0 miles
Clouds Clear
Windchill 38 °F
Dew Point 30 °F
Humidity 57%
Rainfall 0.00 in
Snow Depth Not available.
7:26 AM 6:06 PM
Waning Crescent, 0% visible
METAR KCHK 080215Z AUTO 35012KT 10SM CLR 07/M01 A3026 RMK AO2

10-Day Weather Forecast

Almanac

Astronomy

Feb. 07, 2016 Rise Set
Actual Time
Civil Twilight
Nautical Twilight
Astronomical Twilight
Moon
Length of Visible Light
Length of Day
Tomorrow will be .
, % of the Moon is Illuminated

Today's Extremes

State Highs State Lows

Community

WunderPhotos

Upload Photos

1,891,364 photos uploaded!

WunderBlog® & News

Nearby

Air Quality

  Air Quality AQ Index Pollutant
Not available.

Snow Depth

Station Depth Elevation

Earthquake Activity

City Distance Mag. Time & Date
Minimum magnitude displayed is 2.5.

Coastal Water Temperatures

Place Temperature

Stations

Nearby Weather Stations

Station Location Temp. Windchill Dew Point Humidity Wind Precip. Elev Updated Type
                   

Watches & Warnings

There are currently no watches in effect.